sensor_id;sensor_type;location;lat;lon;timestamp;P1;durP1;ratioP1;P2;durP2;ratioP2
39778;SDS011;25454;49.878;8.618;2023-04-03T00:02:55;2.73;;;1.70;;
39778;SDS011;25454;49.878;8.618;2023-04-03T00:07:56;3.70;;;2.30;;
39778;SDS011;25454;49.878;8.618;2023-04-03T00:12:56;2.87;;;1.80;;
39778;SDS011;25454;49.878;8.618;2023-04-03T00:17:57;2.97;;;1.87;;
39778;SDS011;25454;49.878;8.618;2023-04-03T00:22:57;2.53;;;1.80;;
39778;SDS011;25454;49.878;8.618;2023-04-03T00:27:58;3.37;;;2.13;;
39778;SDS011;25454;49.878;8.618;2023-04-03T00:32:59;5.17;;;2.40;;
39778;SDS011;25454;49.878;8.618;2023-04-03T00:38:00;3.50;;;2.20;;
39778;SDS011;25454;49.878;8.618;2023-04-03T00:43:01;2.07;;;1.73;;
39778;SDS011;25454;49.878;8.618;2023-04-03T00:48:07;2.00;;;1.47;;
39778;SDS011;25454;49.878;8.618;2023-04-03T00:53:11;3.47;;;2.00;;
39778;SDS011;25454;49.878;8.618;2023-04-03T00:58:17;5.77;;;1.93;;
39778;SDS011;25454;49.878;8.618;2023-04-03T01:03:19;4.57;;;2.10;;
39778;SDS011;25454;49.878;8.618;2023-04-03T01:08:20;2.63;;;1.77;;
39778;SDS011;25454;49.878;8.618;2023-04-03T01:13:28;3.50;;;1.70;;
39778;SDS011;25454;49.878;8.618;2023-04-03T01:18:31;4.17;;;1.70;;
39778;SDS011;25454;49.878;8.618;2023-04-03T01:23:37;2.90;;;1.83;;
39778;SDS011;25454;49.878;8.618;2023-04-03T01:28:54;2.50;;;1.63;;
39778;SDS011;25454;49.878;8.618;2023-04-03T01:33:55;3.90;;;1.90;;
39778;SDS011;25454;49.878;8.618;2023-04-03T01:38:56;2.50;;;1.77;;
39778;SDS011;25454;49.878;8.618;2023-04-03T01:43:59;3.00;;;2.07;;
39778;SDS011;25454;49.878;8.618;2023-04-03T01:48:59;3.87;;;1.90;;
39778;SDS011;25454;49.878;8.618;2023-04-03T01:54:00;3.13;;;2.20;;
39778;SDS011;25454;49.878;8.618;2023-04-03T01:59:01;2.87;;;1.90;;
39778;SDS011;25454;49.878;8.618;2023-04-03T02:04:04;4.17;;;2.27;;
39778;SDS011;25454;49.878;8.618;2023-04-03T02:09:05;4.57;;;1.80;;
39778;SDS011;25454;49.878;8.618;2023-04-03T02:14:06;4.37;;;2.33;;
39778;SDS011;25454;49.878;8.618;2023-04-03T02:19:07;1.90;;;1.70;;
39778;SDS011;25454;49.878;8.618;2023-04-03T02:24:08;3.00;;;1.93;;
39778;SDS011;25454;49.878;8.618;2023-04-03T02:29:11;5.50;;;1.90;;
39778;SDS011;25454;49.878;8.618;2023-04-03T02:34:12;4.80;;;1.90;;
39778;SDS011;25454;49.878;8.618;2023-04-03T02:39:13;3.33;;;1.70;;
39778;SDS011;25454;49.878;8.618;2023-04-03T02:44:13;3.67;;;2.40;;
39778;SDS011;25454;49.878;8.618;2023-04-03T02:49:14;3.10;;;1.80;;
39778;SDS011;25454;49.878;8.618;2023-04-03T02:54:15;6.20;;;2.30;;
39778;SDS011;25454;49.878;8.618;2023-04-03T02:59:19;5.47;;;2.30;;
39778;SDS011;25454;49.878;8.618;2023-04-03T03:04:19;5.90;;;2.43;;
39778;SDS011;25454;49.878;8.618;2023-04-03T03:09:20;3.23;;;2.10;;
39778;SDS011;25454;49.878;8.618;2023-04-03T03:14:21;3.80;;;1.93;;
39778;SDS011;25454;49.878;8.618;2023-04-03T03:19:21;4.07;;;2.03;;
39778;SDS011;25454;49.878;8.618;2023-04-03T03:24:22;6.47;;;1.90;;
39778;SDS011;25454;49.878;8.618;2023-04-03T03:29:23;3.13;;;1.90;;
39778;SDS011;25454;49.878;8.618;2023-04-03T03:34:23;4.07;;;1.87;;
39778;SDS011;25454;49.878;8.618;2023-04-03T03:39:24;3.93;;;2.07;;
39778;SDS011;25454;49.878;8.618;2023-04-03T03:44:24;4.07;;;2.07;;
39778;SDS011;25454;49.878;8.618;2023-04-03T03:49:25;4.00;;;1.90;;
39778;SDS011;25454;49.878;8.618;2023-04-03T03:54:26;2.77;;;1.93;;
39778;SDS011;25454;49.878;8.618;2023-04-03T03:59:26;3.80;;;2.00;;
39778;SDS011;25454;49.878;8.618;2023-04-03T04:04:27;3.57;;;1.97;;
39778;SDS011;25454;49.878;8.618;2023-04-03T04:09:28;4.93;;;2.40;;
39778;SDS011;25454;49.878;8.618;2023-04-03T04:14:28;4.50;;;2.13;;
39778;SDS011;25454;49.878;8.618;2023-04-03T04:19:29;2.43;;;1.80;;
39778;SDS011;25454;49.878;8.618;2023-04-03T04:24:29;2.50;;;1.73;;
39778;SDS011;25454;49.878;8.618;2023-04-03T04:29:30;7.20;;;2.00;;
39778;SDS011;25454;49.878;8.618;2023-04-03T04:34:35;3.90;;;1.80;;
39778;SDS011;25454;49.878;8.618;2023-04-03T04:39:36;3.40;;;2.30;;
39778;SDS011;25454;49.878;8.618;2023-04-03T04:44:36;3.43;;;1.73;;
39778;SDS011;25454;49.878;8.618;2023-04-03T04:49:37;4.37;;;1.70;;
39778;SDS011;25454;49.878;8.618;2023-04-03T04:54:38;6.60;;;2.00;;
39778;SDS011;25454;49.878;8.618;2023-04-03T04:59:38;4.80;;;2.50;;
39778;SDS011;25454;49.878;8.618;2023-04-03T05:04:39;4.23;;;1.90;;
39778;SDS011;25454;49.878;8.618;2023-04-03T05:09:39;8.03;;;1.90;;
39778;SDS011;25454;49.878;8.618;2023-04-03T05:14:42;4.57;;;1.80;;
39778;SDS011;25454;49.878;8.618;2023-04-03T05:19:42;5.93;;;1.67;;
39778;SDS011;25454;49.878;8.618;2023-04-03T05:24:43;5.77;;;1.67;;
39778;SDS011;25454;49.878;8.618;2023-04-03T05:29:43;2.63;;;1.47;;
39778;SDS011;25454;49.878;8.618;2023-04-03T05:34:44;5.97;;;1.87;;
39778;SDS011;25454;49.878;8.618;2023-04-03T05:39:45;4.90;;;1.90;;
39778;SDS011;25454;49.878;8.618;2023-04-03T05:44:45;4.83;;;1.70;;
39778;SDS011;25454;49.878;8.618;2023-04-03T05:49:47;6.90;;;2.13;;
39778;SDS011;25454;49.878;8.618;2023-04-03T05:54:47;4.03;;;1.77;;
39778;SDS011;25454;49.878;8.618;2023-04-03T05:59:48;5.40;;;1.80;;
39778;SDS011;25454;49.878;8.618;2023-04-03T06:04:49;4.27;;;1.73;;
39778;SDS011;25454;49.878;8.618;2023-04-03T06:09:51;6.00;;;1.70;;
39778;SDS011;25454;49.878;8.618;2023-04-03T06:14:51;4.83;;;1.70;;
39778;SDS011;25454;49.878;8.618;2023-04-03T06:19:52;4.97;;;1.80;;
39778;SDS011;25454;49.878;8.618;2023-04-03T06:24:52;4.03;;;1.43;;
39778;SDS011;25454;49.878;8.618;2023-04-03T06:29:54;3.50;;;1.50;;
39778;SDS011;25454;49.878;8.618;2023-04-03T06:34:55;5.07;;;1.97;;
39778;SDS011;25454;49.878;8.618;2023-04-03T06:39:57;4.80;;;1.90;;
39778;SDS011;25454;49.878;8.618;2023-04-03T06:44:58;5.73;;;1.80;;
39778;SDS011;25454;49.878;8.618;2023-04-03T06:49:58;4.30;;;1.80;;
39778;SDS011;25454;49.878;8.618;2023-04-03T06:54:59;7.83;;;2.20;;
39778;SDS011;25454;49.878;8.618;2023-04-03T07:00:00;4.83;;;2.03;;
39778;SDS011;25454;49.878;8.618;2023-04-03T07:05:01;6.53;;;2.83;;
39778;SDS011;25454;49.878;8.618;2023-04-03T07:10:02;10.13;;;2.37;;
39778;SDS011;25454;49.878;8.618;2023-04-03T07:15:04;3.30;;;1.87;;
39778;SDS011;25454;49.878;8.618;2023-04-03T07:20:06;3.23;;;1.90;;
39778;SDS011;25454;49.878;8.618;2023-04-03T07:25:07;7.83;;;2.23;;
39778;SDS011;25454;49.878;8.618;2023-04-03T07:30:09;5.37;;;1.80;;
39778;SDS011;25454;49.878;8.618;2023-04-03T07:35:10;5.93;;;1.90;;
39778;SDS011;25454;49.878;8.618;2023-04-03T07:40:11;4.83;;;2.10;;
39778;SDS011;25454;49.878;8.618;2023-04-03T07:45:11;3.40;;;1.60;;
39778;SDS011;25454;49.878;8.618;2023-04-03T07:50:12;6.03;;;1.70;;
39778;SDS011;25454;49.878;8.618;2023-04-03T07:55:13;8.10;;;1.87;;
39778;SDS011;25454;49.878;8.618;2023-04-03T08:00:13;5.87;;;1.90;;
39778;SDS011;25454;49.878;8.618;2023-04-03T08:05:15;5.50;;;1.53;;
39778;SDS011;25454;49.878;8.618;2023-04-03T08:10:17;4.97;;;1.70;;
39778;SDS011;25454;49.878;8.618;2023-04-03T08:15:17;4.03;;;1.70;;
39778;SDS011;25454;49.878;8.618;2023-04-03T08:20:18;5.03;;;1.80;;
39778;SDS011;25454;49.878;8.618;2023-04-03T08:25:19;5.17;;;2.20;;
39778;SDS011;25454;49.878;8.618;2023-04-03T08:30:20;3.93;;;1.80;;
39778;SDS011;25454;49.878;8.618;2023-04-03T08:35:21;5.47;;;1.90;;
39778;SDS011;25454;49.878;8.618;2023-04-03T08:40:22;3.27;;;1.70;;
39778;SDS011;25454;49.878;8.618;2023-04-03T08:51:02;5.97;;;2.03;;
39778;SDS011;25454;49.878;8.618;2023-04-03T08:56:11;2.37;;;1.60;;
39778;SDS011;25454;49.878;8.618;2023-04-03T09:06:34;3.23;;;1.60;;
39778;SDS011;25454;49.878;8.618;2023-04-03T09:11:54;5.77;;;1.93;;
39778;SDS011;25454;49.878;8.618;2023-04-03T09:22:41;3.80;;;1.77;;
39778;SDS011;25454;49.878;8.618;2023-04-03T09:27:44;4.23;;;1.67;;
39778;SDS011;25454;49.878;8.618;2023-04-03T09:32:45;7.47;;;1.80;;
39778;SDS011;25454;49.878;8.618;2023-04-03T09:43:00;4.70;;;1.90;;
39778;SDS011;25454;49.878;8.618;2023-04-03T09:53:27;6.07;;;2.17;;
39778;SDS011;25454;49.878;8.618;2023-04-03T09:58:31;4.83;;;1.63;;
39778;SDS011;25454;49.878;8.618;2023-04-03T10:03:36;4.73;;;1.93;;
39778;SDS011;25454;49.878;8.618;2023-04-03T10:08:39;3.80;;;1.80;;
39778;SDS011;25454;49.878;8.618;2023-04-03T10:13:49;2.50;;;1.20;;
39778;SDS011;25454;49.878;8.618;2023-04-03T10:19:04;4.50;;;1.77;;
39778;SDS011;25454;49.878;8.618;2023-04-03T10:34:43;2.07;;;1.50;;
39778;SDS011;25454;49.878;8.618;2023-04-03T11:01:36;3.93;;;1.60;;
39778;SDS011;25454;49.878;8.618;2023-04-03T11:06:48;3.97;;;1.43;;
39778;SDS011;25454;49.878;8.618;2023-04-03T11:11:55;3.23;;;1.53;;
39778;SDS011;25454;49.878;8.618;2023-04-03T11:22:53;5.60;;;2.07;;
39778;SDS011;25454;49.878;8.618;2023-04-03T11:27:43;4.93;;;2.20;;
39778;SDS011;25454;49.878;8.618;2023-04-03T11:38:14;4.63;;;1.63;;
39778;SDS011;25454;49.878;8.618;2023-04-03T11:43:24;4.67;;;1.67;;
39778;SDS011;25454;49.878;8.618;2023-04-03T11:53:33;2.43;;;1.37;;
39778;SDS011;25454;49.878;8.618;2023-04-03T11:58:39;3.50;;;1.50;;
39778;SDS011;25454;49.878;8.618;2023-04-03T12:19:01;2.83;;;1.40;;
39778;SDS011;25454;49.878;8.618;2023-04-03T12:45:27;1.90;;;1.20;;
39778;SDS011;25454;49.878;8.618;2023-04-03T12:50:29;2.03;;;0.97;;
39778;SDS011;25454;49.878;8.618;2023-04-03T12:55:32;1.47;;;1.13;;
39778;SDS011;25454;49.878;8.618;2023-04-03T13:00:34;2.30;;;1.50;;
39778;SDS011;25454;49.878;8.618;2023-04-03T13:05:35;1.97;;;1.30;;
39778;SDS011;25454;49.878;8.618;2023-04-03T13:10:45;1.43;;;1.13;;
39778;SDS011;25454;49.878;8.618;2023-04-03T13:15:53;2.00;;;1.00;;
39778;SDS011;25454;49.878;8.618;2023-04-03T13:21:08;1.57;;;1.00;;
39778;SDS011;25454;49.878;8.618;2023-04-03T13:26:17;4.37;;;1.40;;
39778;SDS011;25454;49.878;8.618;2023-04-03T13:31:24;3.00;;;1.23;;
39778;SDS011;25454;49.878;8.618;2023-04-03T13:36:30;2.43;;;1.20;;
39778;SDS011;25454;49.878;8.618;2023-04-03T13:41:34;2.03;;;1.00;;
39778;SDS011;25454;49.878;8.618;2023-04-03T13:46:36;2.40;;;1.40;;
39778;SDS011;25454;49.878;8.618;2023-04-03T13:51:37;2.67;;;1.20;;
39778;SDS011;25454;49.878;8.618;2023-04-03T13:56:40;2.73;;;1.47;;
39778;SDS011;25454;49.878;8.618;2023-04-03T14:01:45;3.80;;;1.47;;
39778;SDS011;25454;49.878;8.618;2023-04-03T14:06:50;2.23;;;1.10;;
39778;SDS011;25454;49.878;8.618;2023-04-03T14:11:56;4.07;;;1.67;;
39778;SDS011;25454;49.878;8.618;2023-04-03T14:17:01;3.90;;;1.67;;
39778;SDS011;25454;49.878;8.618;2023-04-03T14:22:10;1.93;;;1.50;;
39778;SDS011;25454;49.878;8.618;2023-04-03T14:32:22;5.07;;;1.87;;
39778;SDS011;25454;49.878;8.618;2023-04-03T14:37:25;2.97;;;1.97;;
39778;SDS011;25454;49.878;8.618;2023-04-03T14:42:29;6.40;;;1.67;;
39778;SDS011;25454;49.878;8.618;2023-04-03T14:47:31;5.93;;;1.70;;
39778;SDS011;25454;49.878;8.618;2023-04-03T14:52:33;2.83;;;1.20;;
39778;SDS011;25454;49.878;8.618;2023-04-03T14:57:35;6.80;;;2.10;;
39778;SDS011;25454;49.878;8.618;2023-04-03T15:02:38;5.50;;;1.87;;
39778;SDS011;25454;49.878;8.618;2023-04-03T15:07:40;6.03;;;2.20;;
39778;SDS011;25454;49.878;8.618;2023-04-03T15:12:43;4.30;;;2.10;;
39778;SDS011;25454;49.878;8.618;2023-04-03T15:17:44;6.30;;;2.60;;
39778;SDS011;25454;49.878;8.618;2023-04-03T15:22:47;4.03;;;1.90;;
39778;SDS011;25454;49.878;8.618;2023-04-03T15:27:49;4.40;;;1.67;;
39778;SDS011;25454;49.878;8.618;2023-04-03T15:32:50;5.23;;;1.90;;
39778;SDS011;25454;49.878;8.618;2023-04-03T15:37:50;3.20;;;1.67;;
39778;SDS011;25454;49.878;8.618;2023-04-03T15:42:51;3.77;;;2.00;;
39778;SDS011;25454;49.878;8.618;2023-04-03T15:47:52;3.63;;;1.93;;
39778;SDS011;25454;49.878;8.618;2023-04-03T15:52:52;2.37;;;1.57;;
39778;SDS011;25454;49.878;8.618;2023-04-03T15:57:58;2.70;;;1.50;;
39778;SDS011;25454;49.878;8.618;2023-04-03T16:02:59;3.23;;;1.57;;
39778;SDS011;25454;49.878;8.618;2023-04-03T16:08:04;2.80;;;1.40;;
39778;SDS011;25454;49.878;8.618;2023-04-03T16:13:07;3.73;;;1.83;;
39778;SDS011;25454;49.878;8.618;2023-04-03T16:18:08;3.77;;;1.60;;
39778;SDS011;25454;49.878;8.618;2023-04-03T16:23:09;4.90;;;2.37;;
39778;SDS011;25454;49.878;8.618;2023-04-03T16:28:14;2.90;;;1.30;;
39778;SDS011;25454;49.878;8.618;2023-04-03T16:33:17;2.20;;;1.30;;
39778;SDS011;25454;49.878;8.618;2023-04-03T16:38:21;1.40;;;1.10;;
39778;SDS011;25454;49.878;8.618;2023-04-03T16:43:22;3.37;;;1.30;;
39778;SDS011;25454;49.878;8.618;2023-04-03T16:48:22;2.37;;;1.10;;
39778;SDS011;25454;49.878;8.618;2023-04-03T16:53:23;3.90;;;1.20;;
39778;SDS011;25454;49.878;8.618;2023-04-03T16:58:25;3.43;;;1.20;;
39778;SDS011;25454;49.878;8.618;2023-04-03T17:03:25;3.90;;;1.33;;
39778;SDS011;25454;49.878;8.618;2023-04-03T17:08:27;3.03;;;1.00;;
39778;SDS011;25454;49.878;8.618;2023-04-03T17:13:28;2.63;;;1.23;;
39778;SDS011;25454;49.878;8.618;2023-04-03T17:18:32;2.20;;;1.03;;
39778;SDS011;25454;49.878;8.618;2023-04-03T17:23:34;4.47;;;1.50;;
39778;SDS011;25454;49.878;8.618;2023-04-03T17:28:36;4.00;;;1.43;;
39778;SDS011;25454;49.878;8.618;2023-04-03T17:33:38;3.20;;;1.60;;
39778;SDS011;25454;49.878;8.618;2023-04-03T17:38:38;5.20;;;1.33;;
39778;SDS011;25454;49.878;8.618;2023-04-03T17:43:40;1.67;;;1.10;;
39778;SDS011;25454;49.878;8.618;2023-04-03T17:48:40;2.67;;;1.07;;
39778;SDS011;25454;49.878;8.618;2023-04-03T17:53:41;3.97;;;1.37;;
39778;SDS011;25454;49.878;8.618;2023-04-03T17:58:43;2.33;;;1.30;;
39778;SDS011;25454;49.878;8.618;2023-04-03T18:03:45;2.13;;;1.57;;
39778;SDS011;25454;49.878;8.618;2023-04-03T18:08:47;4.60;;;1.30;;
39778;SDS011;25454;49.878;8.618;2023-04-03T18:13:50;2.00;;;1.50;;
39778;SDS011;25454;49.878;8.618;2023-04-03T18:18:51;2.33;;;1.20;;
39778;SDS011;25454;49.878;8.618;2023-04-03T18:23:52;2.63;;;1.40;;
39778;SDS011;25454;49.878;8.618;2023-04-03T18:28:56;3.87;;;1.30;;
39778;SDS011;25454;49.878;8.618;2023-04-03T18:33:58;4.03;;;1.30;;
39778;SDS011;25454;49.878;8.618;2023-04-03T18:39:00;4.93;;;1.30;;
39778;SDS011;25454;49.878;8.618;2023-04-03T18:44:01;2.33;;;1.23;;
39778;SDS011;25454;49.878;8.618;2023-04-03T18:49:04;4.77;;;1.17;;
39778;SDS011;25454;49.878;8.618;2023-04-03T18:54:05;2.20;;;1.37;;
39778;SDS011;25454;49.878;8.618;2023-04-03T18:59:08;2.53;;;1.00;;
39778;SDS011;25454;49.878;8.618;2023-04-03T19:10:06;2.53;;;1.00;;
39778;SDS011;25454;49.878;8.618;2023-04-03T19:15:08;4.53;;;1.70;;
39778;SDS011;25454;49.878;8.618;2023-04-03T19:20:09;1.97;;;1.30;;
39778;SDS011;25454;49.878;8.618;2023-04-03T19:25:11;2.83;;;1.40;;
39778;SDS011;25454;49.878;8.618;2023-04-03T19:30:12;3.80;;;1.57;;
39778;SDS011;25454;49.878;8.618;2023-04-03T19:35:13;3.73;;;1.30;;
39778;SDS011;25454;49.878;8.618;2023-04-03T19:40:14;5.40;;;1.33;;
39778;SDS011;25454;49.878;8.618;2023-04-03T19:45:15;4.07;;;1.67;;
39778;SDS011;25454;49.878;8.618;2023-04-03T19:50:17;3.73;;;1.60;;
39778;SDS011;25454;49.878;8.618;2023-04-03T19:55:17;3.93;;;1.33;;
39778;SDS011;25454;49.878;8.618;2023-04-03T20:00:18;3.70;;;1.57;;
39778;SDS011;25454;49.878;8.618;2023-04-03T20:05:19;3.27;;;1.40;;
39778;SDS011;25454;49.878;8.618;2023-04-03T20:10:20;6.43;;;1.17;;
39778;SDS011;25454;49.878;8.618;2023-04-03T20:15:21;3.97;;;1.60;;
39778;SDS011;25454;49.878;8.618;2023-04-03T20:20:24;2.03;;;1.23;;
39778;SDS011;25454;49.878;8.618;2023-04-03T20:25:26;3.53;;;1.40;;
39778;SDS011;25454;49.878;8.618;2023-04-03T20:30:27;4.50;;;1.47;;
39778;SDS011;25454;49.878;8.618;2023-04-03T20:35:27;3.53;;;1.20;;
39778;SDS011;25454;49.878;8.618;2023-04-03T20:40:28;3.70;;;1.20;;
39778;SDS011;25454;49.878;8.618;2023-04-03T20:45:28;3.83;;;1.53;;
39778;SDS011;25454;49.878;8.618;2023-04-03T20:50:31;4.87;;;1.63;;
39778;SDS011;25454;49.878;8.618;2023-04-03T20:55:32;3.33;;;1.60;;
39778;SDS011;25454;49.878;8.618;2023-04-03T21:00:33;4.50;;;1.80;;
39778;SDS011;25454;49.878;8.618;2023-04-03T21:05:36;2.50;;;1.50;;
39778;SDS011;25454;49.878;8.618;2023-04-03T21:21:16;4.63;;;1.60;;
39778;SDS011;25454;49.878;8.618;2023-04-03T21:26:22;4.77;;;1.73;;
39778;SDS011;25454;49.878;8.618;2023-04-03T21:31:45;5.03;;;1.50;;
39778;SDS011;25454;49.878;8.618;2023-04-03T21:36:54;3.23;;;1.90;;
39778;SDS011;25454;49.878;8.618;2023-04-03T21:42:05;2.77;;;1.50;;
39778;SDS011;25454;49.878;8.618;2023-04-03T21:47:06;4.43;;;1.77;;
39778;SDS011;25454;49.878;8.618;2023-04-03T21:52:06;2.60;;;1.50;;
39778;SDS011;25454;49.878;8.618;2023-04-03T21:57:07;4.80;;;1.53;;
39778;SDS011;25454;49.878;8.618;2023-04-03T22:02:14;4.23;;;1.50;;
39778;SDS011;25454;49.878;8.618;2023-04-03T22:07:14;3.90;;;1.80;;
39778;SDS011;25454;49.878;8.618;2023-04-03T22:12:15;6.93;;;1.80;;
39778;SDS011;25454;49.878;8.618;2023-04-03T22:17:16;3.47;;;1.37;;
39778;SDS011;25454;49.878;8.618;2023-04-03T22:22:16;4.47;;;1.50;;
39778;SDS011;25454;49.878;8.618;2023-04-03T22:27:17;2.87;;;1.27;;
39778;SDS011;25454;49.878;8.618;2023-04-03T22:32:18;3.00;;;1.50;;
39778;SDS011;25454;49.878;8.618;2023-04-03T22:37:18;4.53;;;1.70;;
39778;SDS011;25454;49.878;8.618;2023-04-03T22:42:19;6.03;;;1.70;;
39778;SDS011;25454;49.878;8.618;2023-04-03T22:47:20;3.47;;;1.53;;
39778;SDS011;25454;49.878;8.618;2023-04-03T22:52:20;3.73;;;1.57;;
39778;SDS011;25454;49.878;8.618;2023-04-03T22:57:24;3.50;;;1.60;;
39778;SDS011;25454;49.878;8.618;2023-04-03T23:02:25;3.97;;;1.93;;
39778;SDS011;25454;49.878;8.618;2023-04-03T23:07:27;4.10;;;1.53;;
39778;SDS011;25454;49.878;8.618;2023-04-03T23:12:28;3.30;;;1.50;;
39778;SDS011;25454;49.878;8.618;2023-04-03T23:17:28;4.07;;;2.00;;
39778;SDS011;25454;49.878;8.618;2023-04-03T23:22:29;11.33;;;3.17;;
39778;SDS011;25454;49.878;8.618;2023-04-03T23:27:29;7.27;;;2.83;;
39778;SDS011;25454;49.878;8.618;2023-04-03T23:32:30;6.27;;;2.00;;
39778;SDS011;25454;49.878;8.618;2023-04-03T23:37:31;4.90;;;1.63;;
39778;SDS011;25454;49.878;8.618;2023-04-03T23:42:32;8.47;;;1.73;;
39778;SDS011;25454;49.878;8.618;2023-04-03T23:47:32;3.87;;;1.67;;
39778;SDS011;25454;49.878;8.618;2023-04-03T23:52:33;2.37;;;1.40;;
39778;SDS011;25454;49.878;8.618;2023-04-03T23:57:33;6.27;;;1.73;;
